Joanna, South Carolina
Current Conditions -  °F | °C
As of 7:56 AM on Saturday 01 Nov 2014 (Local Time) from KGRD Reporting Station
Light Snow Light Snow  
Wind Chill: 25°   Ceiling: 1200
Heat Index: 33°   Visibility: 2mi
Dew Point: 31°   Wind: 9mph
Humidity: 92%   Direction: 270°W
Pressure: 29.8"   Gusts: NA
Location:  34.42°N, 81.81°W
Report Text: KGRD 011156Z AUTO 27008KT 2SM -SN BR FEW005 OVC012 01/M01 A2980 RMK AO2 SLP090 P0010 60053 70053 T00061006 10089 20006 51005
Loading
Personal Weather Stations






























Interactive Weather Map
Tropical Storm Tracking
New forecast layout! Learn more

10-Day Weather Forecast

Advertisements
Track Severe Weather on mobile